createdAt,value
2019-03-25T00:00:23.740Z,96469.75
2019-03-25T00:02:50.598Z,96457.63
2019-03-25T00:05:17.472Z,96458.68
2019-03-25T00:07:44.337Z,96463.69
2019-03-25T00:10:11.433Z,96460.48
2019-03-25T00:12:38.424Z,96460.02
2019-03-25T00:15:05.430Z,96463.56
2019-03-25T00:17:32.312Z,96461.17
2019-03-25T00:19:59.296Z,96455.80
2019-03-25T00:22:26.266Z,96449.09
2019-03-25T00:24:53.153Z,96451.48
2019-03-25T00:27:20.118Z,96446.37
2019-03-25T00:29:47.028Z,96448.47
2019-03-25T00:32:13.985Z,96446.76
2019-03-25T00:34:40.862Z,96444.30
2019-03-25T00:37:07.807Z,96450.42
2019-03-25T00:39:34.682Z,96442.01
2019-03-25T00:42:01.665Z,96434.12
2019-03-25T00:44:28.680Z,96432.22
2019-03-25T00:46:55.605Z,96431.63
2019-03-25T00:49:22.589Z,96428.88
2019-03-25T00:51:49.447Z,96430.74
2019-03-25T00:54:16.412Z,96432.54
2019-03-25T00:56:43.293Z,96433.00
2019-03-25T00:59:10.181Z,96430.83
2019-03-25T01:01:37.150Z,96430.53
2019-03-25T01:04:04.069Z,96432.11
2019-03-25T01:06:31.035Z,96432.30
2019-03-25T01:08:58.001Z,96422.31
2019-03-25T01:11:24.873Z,96423.13
2019-03-25T01:13:51.845Z,96423.66
2019-03-25T01:16:18.728Z,96412.33
2019-03-25T01:18:45.594Z,96423.88
2019-03-25T01:21:12.472Z,96418.22
2019-03-25T01:23:39.353Z,96419.56
2019-03-25T01:26:06.228Z,96416.28
2019-03-25T01:28:33.204Z,96411.08
2019-03-25T01:31:00.182Z,96409.44
2019-03-25T01:33:27.058Z,96407.58
2019-03-25T01:35:53.859Z,96405.41
2019-03-25T01:38:20.720Z,96399.23
2019-03-25T01:40:47.589Z,96399.45
2019-03-25T01:43:14.473Z,96394.09
2019-03-25T01:45:41.348Z,96395.95
2019-03-25T01:48:08.210Z,96394.32
2019-03-25T01:50:35.092Z,96387.61
2019-03-25T01:53:02.050Z,96385.45
2019-03-25T01:55:28.920Z,96382.77
2019-03-25T01:57:55.889Z,96381.20
2019-03-25T02:00:22.760Z,96380.97
2019-03-25T02:02:49.649Z,96380.16
2019-03-25T02:05:16.628Z,96383.88
2019-03-25T02:07:43.605Z,96374.95
2019-03-25T02:10:15.080Z,96383.25
2019-03-25T02:12:41.960Z,96375.43
2019-03-25T02:15:08.927Z,96373.80
2019-03-25T02:17:35.813Z,96371.34
2019-03-25T02:20:03.119Z,96368.66
2019-03-25T02:22:30.166Z,96366.50
2019-03-25T02:24:57.170Z,96372.61
2019-03-25T02:27:24.118Z,96361.88
2019-03-25T02:29:51.032Z,96361.88
2019-03-25T02:32:18.007Z,96361.00
2019-03-25T02:34:44.984Z,96363.09
2019-03-25T02:37:11.962Z,96369.27
2019-03-25T02:39:38.932Z,96362.79
2019-03-25T02:42:05.914Z,96351.17
2019-03-25T02:44:32.803Z,96358.37
2019-03-25T02:46:59.773Z,96359.11
2019-03-25T02:49:26.648Z,96354.80
2019-03-25T02:51:53.508Z,96348.31
2019-03-25T02:54:20.486Z,96353.91
2019-03-25T02:56:47.358Z,96344.45
2019-03-25T02:59:14.230Z,96350.04
2019-03-25T03:01:41.117Z,96347.59
2019-03-25T03:04:08.003Z,96359.06
2019-03-25T03:06:34.890Z,96350.20
2019-03-25T03:09:01.761Z,96346.17
2019-03-25T03:11:28.736Z,96339.02
2019-03-25T03:13:55.610Z,96341.47
2019-03-25T03:16:22.571Z,96342.22
2019-03-25T03:18:49.543Z,96336.86
2019-03-25T03:21:16.510Z,96333.59
2019-03-25T03:23:43.388Z,96336.50
2019-03-25T03:26:10.330Z,96327.63
2019-03-25T03:28:37.212Z,96323.57
2019-03-25T03:31:04.184Z,96332.66
2019-03-25T03:33:31.372Z,96324.84
2019-03-25T03:36:06.360Z,96330.11
2019-03-25T03:38:33.265Z,96328.39
2019-03-25T03:41:00.228Z,96325.88
2019-03-25T03:43:27.237Z,96317.16
2019-03-25T03:45:54.210Z,96321.08
2019-03-25T03:48:21.165Z,96307.83
2019-03-25T03:50:48.027Z,96320.63
2019-03-25T03:53:14.984Z,96315.42
2019-03-25T03:55:41.846Z,96310.22
2019-03-25T03:58:08.722Z,96318.44
2019-03-25T04:00:35.610Z,96316.80
2019-03-25T04:03:02.474Z,96310.84
2019-03-25T04:05:29.349Z,96318.36
2019-03-25T04:07:56.221Z,96311.97
2019-03-25T04:10:23.206Z,96312.48
2019-03-25T04:12:50.064Z,96312.04
2019-03-25T04:15:19.822Z,96306.98
2019-03-25T04:17:46.697Z,96304.30
2019-03-25T04:20:13.565Z,96303.18
2019-03-25T04:22:40.446Z,96309.06
2019-03-25T04:25:08.843Z,96314.57
2019-03-25T04:27:35.805Z,96310.25
2019-03-25T04:30:02.690Z,96299.23
2019-03-25T04:32:29.671Z,96300.28
2019-03-25T04:34:56.544Z,96301.55
2019-03-25T04:37:23.423Z,96290.53
2019-03-25T04:39:50.386Z,96297.68
2019-03-25T04:42:17.366Z,96290.94
2019-03-25T04:44:44.334Z,96298.98
2019-03-25T04:47:11.202Z,96303.44
2019-03-25T04:49:38.082Z,96300.61
2019-03-25T04:52:05.081Z,96300.16
2019-03-25T04:54:31.972Z,96306.74
2019-03-25T04:56:58.847Z,96304.21
2019-03-25T04:59:25.740Z,96299.89
2019-03-25T05:01:52.680Z,96299.08
2019-03-25T05:04:19.578Z,96304.55
2019-03-25T05:06:46.453Z,96305.05
2019-03-25T05:09:13.355Z,96306.83
2019-03-25T05:11:40.320Z,96309.09
2019-03-25T05:14:07.192Z,96308.05
2019-03-25T05:16:34.148Z,96297.19
2019-03-25T05:19:01.012Z,96298.91
2019-03-25T05:21:27.883Z,96305.08
2019-03-25T05:23:54.758Z,96300.24
2019-03-25T05:26:21.643Z,96301.36
2019-03-25T05:28:48.619Z,96301.98
2019-03-25T05:31:15.521Z,96303.25
2019-03-25T05:33:42.384Z,96311.20
2019-03-25T05:36:09.239Z,96310.53
2019-03-25T05:38:36.119Z,96311.26
2019-03-25T05:41:03.086Z,96311.48
2019-03-25T05:43:29.963Z,96309.84
2019-03-25T05:45:56.839Z,96317.28
2019-03-25T05:48:23.727Z,96314.08
2019-03-25T05:50:50.603Z,96318.39
2019-03-25T05:53:17.480Z,96319.14
2019-03-25T05:55:44.353Z,96319.14
2019-03-25T05:58:11.317Z,96316.23
2019-03-25T06:00:38.424Z,96328.74
2019-03-25T06:03:05.284Z,96330.13
2019-03-25T06:05:32.280Z,96330.08
2019-03-25T06:07:59.242Z,96332.98
2019-03-25T06:10:26.144Z,96327.41
2019-03-25T06:12:53.030Z,96333.33
2019-03-25T06:15:19.921Z,96327.41
2019-03-25T06:17:46.784Z,96328.14
2019-03-25T06:20:13.787Z,96325.47
2019-03-25T06:22:40.656Z,96335.14
2019-03-25T06:25:09.844Z,96338.56
2019-03-25T06:27:36.898Z,96336.19
2019-03-25T06:30:04.493Z,96329.48
2019-03-25T06:32:31.362Z,96330.64
2019-03-25T06:34:58.269Z,96327.67
2019-03-25T06:37:25.235Z,96342.58
2019-03-25T06:39:52.109Z,96333.20
2019-03-25T06:42:19.094Z,96334.99
2019-03-25T06:44:46.060Z,96336.19
2019-03-25T06:47:12.958Z,96335.66
2019-03-25T06:49:39.823Z,96333.66
2019-03-25T06:52:06.790Z,96331.94
2019-03-25T06:54:33.670Z,96330.45
2019-03-25T06:57:00.549Z,96324.49
2019-03-25T06:59:27.527Z,96327.27
2019-03-25T07:01:54.508Z,96330.69
2019-03-25T07:04:21.526Z,96332.84
2019-03-25T07:06:48.399Z,96333.89
2019-03-25T07:09:15.390Z,96337.68
2019-03-25T07:11:42.259Z,96338.80
2019-03-25T07:14:09.222Z,96336.94
2019-03-25T07:16:36.086Z,96327.87
2019-03-25T07:19:02.980Z,96328.09
2019-03-25T07:21:29.932Z,96333.00
2019-03-25T07:23:56.858Z,96336.41
2019-03-25T07:26:23.828Z,96341.55
2019-03-25T07:28:50.812Z,96357.15
2019-03-25T07:31:17.785Z,96335.73
2019-03-25T07:33:44.682Z,96332.41
2019-03-25T07:36:11.551Z,96345.77
2019-03-25T07:38:38.421Z,96343.61
2019-03-25T07:41:05.319Z,96342.41
2019-03-25T07:43:32.281Z,96334.64
2019-03-25T07:45:59.249Z,96340.78
2019-03-25T07:48:26.155Z,96348.23
2019-03-25T07:50:53.070Z,96341.33
2019-03-25T07:53:20.064Z,96344.00
2019-03-25T07:55:47.068Z,96331.20
2019-03-25T07:58:14.039Z,96342.86
2019-03-25T08:00:41.014Z,96340.62
2019-03-25T08:03:07.981Z,96338.98
2019-03-25T08:05:34.882Z,96336.17
2019-03-25T08:08:01.840Z,96340.09
2019-03-25T08:10:37.745Z,96339.15
2019-03-25T08:13:04.864Z,96338.46
2019-03-25T08:15:32.263Z,96336.25
2019-03-25T08:17:59.327Z,96334.83
2019-03-25T08:20:26.355Z,96343.54
2019-03-25T08:22:53.416Z,96340.34
2019-03-25T08:25:20.447Z,96337.31
2019-03-25T08:27:59.118Z,96355.30
2019-03-25T08:30:16.296Z,96349.94
2019-03-25T08:32:43.332Z,96346.38
2019-03-25T08:35:10.356Z,96341.98
2019-03-25T08:37:37.399Z,96347.80
2019-03-25T08:40:04.438Z,96348.23
2019-03-25T08:42:31.463Z,96355.91
2019-03-25T08:44:58.528Z,96356.78
2019-03-25T08:47:25.556Z,96354.86
2019-03-25T08:49:52.568Z,96359.41
2019-03-25T08:52:19.604Z,96357.84
2019-03-25T08:54:46.648Z,96362.36
2019-03-25T08:57:13.678Z,96360.88
2019-03-25T08:59:40.807Z,96363.27
2019-03-25T09:02:07.839Z,96354.47
2019-03-25T09:04:34.783Z,96359.19
2019-03-25T09:07:01.826Z,96367.14
2019-03-25T09:09:28.861Z,96359.03
2019-03-25T09:11:55.880Z,96365.05
2019-03-25T09:14:22.907Z,96361.77
2019-03-25T09:16:49.958Z,96357.77
2019-03-25T09:19:16.963Z,96360.27
2019-03-25T09:21:44.026Z,96366.52
2019-03-25T09:24:11.043Z,96356.88
2019-03-25T09:26:38.062Z,96342.03
2019-03-25T09:29:05.084Z,96335.18
2019-03-25T09:31:36.831Z,96339.84
2019-03-25T09:34:06.968Z,96348.18
2019-03-25T09:36:33.991Z,96327.39
2019-03-25T09:39:01.029Z,96326.19
2019-03-25T09:41:28.531Z,96339.97
2019-03-25T09:43:55.595Z,96332.18
2019-03-25T09:46:22.620Z,96346.38
2019-03-25T09:48:49.657Z,96339.61
2019-03-25T09:51:16.697Z,96332.91
2019-03-25T09:53:43.746Z,96347.95
2019-03-25T09:56:10.796Z,96343.60
2019-03-25T09:58:37.817Z,96343.83
2019-03-25T10:01:04.908Z,96336.17
2019-03-25T10:03:31.936Z,96343.40
2019-03-25T10:05:58.993Z,96345.77
2019-03-25T10:08:26.042Z,96346.30
2019-03-25T10:10:54.803Z,96350.48
2019-03-25T10:13:21.830Z,96350.55
2019-03-25T10:15:48.886Z,96345.78
2019-03-25T10:18:15.922Z,96346.02
2019-03-25T10:20:42.991Z,96344.48
2019-03-25T10:23:10.045Z,96340.16
2019-03-25T10:25:37.086Z,96335.02
2019-03-25T10:28:04.114Z,96341.44
2019-03-25T10:30:31.132Z,96338.77
2019-03-25T10:32:58.212Z,96341.86
2019-03-25T10:35:25.242Z,96334.96
2019-03-25T10:37:52.292Z,96331.55
2019-03-25T10:40:19.139Z,96332.52
2019-03-25T10:42:46.193Z,96329.73
2019-03-25T10:45:13.219Z,96331.95
2019-03-25T10:47:40.257Z,96328.45
2019-03-25T10:50:07.305Z,96323.81
2019-03-25T10:52:34.335Z,96320.05
2019-03-25T10:55:01.381Z,96318.77
2019-03-25T10:57:28.388Z,96326.19
2019-03-25T10:59:55.412Z,96313.74
2019-03-25T11:02:22.476Z,96322.38
2019-03-25T11:04:49.536Z,96317.53
2019-03-25T11:07:16.653Z,96322.20
2019-03-25T11:09:43.736Z,96312.69
2019-03-25T11:12:10.809Z,96326.75
2019-03-25T11:14:37.942Z,96307.39
2019-03-25T11:17:04.959Z,96303.28
2019-03-25T11:19:32.005Z,96298.77
2019-03-25T11:21:59.026Z,96323.45
2019-03-25T11:24:26.063Z,96300.72
2019-03-25T11:26:53.109Z,96318.18
2019-03-25T11:29:20.125Z,96296.94
2019-03-25T11:31:47.147Z,96297.77
2019-03-25T11:34:14.190Z,96287.53
2019-03-25T11:36:41.202Z,96289.73
2019-03-25T11:39:08.257Z,96290.92
2019-03-25T11:41:35.293Z,96285.62
2019-03-25T11:44:02.318Z,96286.55
2019-03-25T11:46:29.366Z,96290.75
2019-03-25T11:48:56.386Z,96288.19
2019-03-25T11:51:23.435Z,96277.95
2019-03-25T11:53:50.449Z,96284.38
2019-03-25T11:56:17.501Z,96295.61
2019-03-25T11:58:44.522Z,96279.33
2019-03-25T12:01:11.543Z,96275.67
2019-03-25T12:03:38.637Z,96287.67
2019-03-25T12:06:05.666Z,96288.00
2019-03-25T12:08:32.692Z,96295.33
2019-03-25T12:10:59.728Z,96287.80
2019-03-25T12:13:26.776Z,96279.11
2019-03-25T12:15:53.790Z,96274.78
2019-03-25T12:18:20.832Z,96272.70
2019-03-25T12:20:47.857Z,96275.06
2019-03-25T12:23:14.906Z,96267.58
2019-03-25T12:25:41.933Z,96270.16
2019-03-25T12:28:08.986Z,96286.56
2019-03-25T12:30:35.991Z,96264.25
2019-03-25T12:33:04.236Z,96265.55
2019-03-25T12:35:31.498Z,96254.56
2019-03-25T12:37:58.524Z,96254.70
2019-03-25T12:40:25.547Z,96254.66
2019-03-25T12:42:52.588Z,96260.38
2019-03-25T12:45:19.628Z,96246.31
2019-03-25T12:47:46.648Z,96250.66
2019-03-25T12:50:13.712Z,96257.64
2019-03-25T12:52:40.754Z,96256.22
2019-03-25T12:55:08.386Z,96235.63
2019-03-25T12:57:35.570Z,96229.25
2019-03-25T13:00:02.967Z,96241.05
2019-03-25T13:02:30.028Z,96227.20
2019-03-25T13:04:57.043Z,96222.23
2019-03-25T13:07:24.059Z,96211.41
2019-03-25T13:09:51.113Z,96220.03
2019-03-25T13:12:18.154Z,96217.96
2019-03-25T13:14:45.245Z,96229.50
2019-03-25T13:17:12.261Z,96210.06
2019-03-25T13:19:39.293Z,96206.53
2019-03-25T13:22:06.320Z,96213.16
2019-03-25T13:24:33.350Z,96203.02
2019-03-25T13:27:00.369Z,96188.70
2019-03-25T13:29:27.384Z,96208.42
2019-03-25T13:31:54.425Z,96207.30
2019-03-25T13:34:21.466Z,96213.14
2019-03-25T13:36:48.490Z,96228.03
2019-03-25T13:39:15.514Z,96218.14
2019-03-25T13:41:42.590Z,96212.00
2019-03-25T13:44:09.689Z,96219.09
2019-03-25T13:46:36.742Z,96230.15
2019-03-25T13:49:03.769Z,96224.56
2019-03-25T13:51:30.791Z,96229.19
2019-03-25T13:53:57.822Z,96228.50
2019-03-25T13:56:24.837Z,96222.54
2019-03-25T13:58:51.898Z,96230.16
2019-03-25T14:01:18.929Z,96254.83
2019-03-25T14:03:45.997Z,96258.96
2019-03-25T14:06:13.015Z,96259.86
2019-03-25T14:08:40.076Z,96296.52
2019-03-25T14:11:07.111Z,96299.46
2019-03-25T14:13:34.156Z,96306.14
2019-03-25T14:16:01.186Z,96327.81
2019-03-25T14:18:28.219Z,96328.89
2019-03-25T14:20:55.174Z,96339.45
2019-03-25T14:23:22.227Z,96354.12
2019-03-25T14:25:49.261Z,96353.05
2019-03-25T14:28:16.327Z,96357.97
2019-03-25T14:30:43.609Z,96340.57
2019-03-25T14:33:10.610Z,96329.94
2019-03-25T14:35:37.629Z,96333.77
2019-03-25T14:38:04.646Z,96343.27
2019-03-25T14:40:31.683Z,96337.56
2019-03-25T14:42:58.723Z,96332.94
2019-03-25T14:45:26.733Z,96338.95
2019-03-25T14:47:53.987Z,96344.81
2019-03-25T14:50:21.065Z,96343.70
2019-03-25T14:52:48.509Z,96348.44
2019-03-25T14:55:17.228Z,96369.58
2019-03-25T14:57:44.251Z,96421.88
2019-03-25T15:00:11.328Z,96411.33
2019-03-25T15:02:38.400Z,96419.08
2019-03-25T15:05:05.445Z,96436.22
2019-03-25T15:07:32.480Z,96449.25
2019-03-25T15:09:59.526Z,96436.22
2019-03-25T15:12:26.545Z,96436.25
2019-03-25T15:14:53.573Z,96441.61
2019-03-25T15:17:20.656Z,96461.20
2019-03-25T15:19:47.697Z,96464.98
2019-03-25T15:22:14.731Z,96454.81
2019-03-25T15:24:41.763Z,96452.05
2019-03-25T15:27:08.823Z,96455.07
2019-03-25T15:29:35.879Z,96457.31
2019-03-25T15:32:02.898Z,96451.98
2019-03-25T15:34:29.955Z,96448.50
2019-03-25T15:36:56.989Z,96441.09
2019-03-25T15:39:24.059Z,96442.31
2019-03-25T15:41:54.716Z,96444.08
2019-03-25T15:44:21.747Z,96441.41
2019-03-25T15:46:55.697Z,96439.34
2019-03-25T15:49:17.656Z,96429.02
2019-03-25T15:51:44.683Z,96415.22
2019-03-25T15:54:11.751Z,96419.22
2019-03-25T15:56:38.784Z,96415.00
2019-03-25T15:59:05.860Z,96408.15
2019-03-25T16:01:33.027Z,96394.83
2019-03-25T16:04:00.056Z,96399.97
2019-03-25T16:06:27.124Z,96403.03
2019-03-25T16:08:54.154Z,96415.00
2019-03-25T16:11:21.232Z,96415.52
2019-03-25T16:13:48.260Z,96410.87
2019-03-25T16:16:15.332Z,96413.33
2019-03-25T16:18:42.408Z,96421.02
2019-03-25T16:21:09.452Z,96433.34
2019-03-25T16:23:36.714Z,96433.95
2019-03-25T16:26:04.313Z,96435.81
2019-03-25T16:28:31.431Z,96440.63
2019-03-25T16:30:59.266Z,96432.02
2019-03-25T16:33:26.504Z,96437.66
2019-03-25T16:35:53.569Z,96434.78
2019-03-25T16:38:20.641Z,96442.55
2019-03-25T16:40:47.689Z,96447.67
2019-03-25T16:43:14.705Z,96448.05
2019-03-25T16:45:41.774Z,96450.78
2019-03-25T16:48:08.802Z,96451.64
2019-03-25T16:50:35.819Z,96463.53
2019-03-25T16:53:02.882Z,96469.59
2019-03-25T16:55:29.935Z,96481.75
2019-03-25T16:57:57.015Z,96499.89
2019-03-25T17:00:27.548Z,96518.94
2019-03-25T17:02:52.893Z,96500.68
2019-03-25T17:05:19.945Z,96513.01
2019-03-25T17:07:46.980Z,96502.93
2019-03-25T17:10:14.105Z,96510.74
2019-03-25T17:12:41.131Z,96509.85
2019-03-25T17:15:08.174Z,96522.30
2019-03-25T17:17:35.264Z,96523.79
2019-03-25T17:20:02.304Z,96530.55
2019-03-25T17:22:29.335Z,96532.40
2019-03-25T17:24:56.351Z,96540.19
2019-03-25T17:27:23.432Z,96536.00
2019-03-25T17:29:50.447Z,96545.41
2019-03-25T17:32:17.506Z,96541.41
2019-03-25T17:34:47.629Z,96548.89
2019-03-25T17:37:14.679Z,96549.95
2019-03-25T17:39:41.712Z,96550.90
2019-03-25T17:42:08.762Z,96549.10
2019-03-25T17:44:35.783Z,96552.13
2019-03-25T17:47:02.835Z,96555.26
2019-03-25T17:49:29.993Z,96575.48
2019-03-25T17:51:57.043Z,96575.80
2019-03-25T17:54:24.064Z,96587.98
2019-03-25T17:56:51.091Z,96559.14
2019-03-25T17:59:18.140Z,96538.88
2019-03-25T18:01:45.205Z,96557.30
2019-03-25T18:04:12.300Z,96579.84
2019-03-25T18:06:39.335Z,96591.95
2019-03-25T18:09:07.271Z,96594.47
2019-03-25T18:11:34.317Z,96592.69
2019-03-25T18:14:01.396Z,96587.95
2019-03-25T18:16:28.460Z,96594.54
2019-03-25T18:18:55.515Z,96606.70
2019-03-25T18:21:22.583Z,96611.63
2019-03-25T18:23:49.585Z,96611.69
2019-03-25T18:26:16.664Z,96610.67
2019-03-25T18:28:43.629Z,96601.19
2019-03-25T18:31:10.680Z,96588.65
2019-03-25T18:33:37.732Z,96575.00
2019-03-25T18:36:04.759Z,96582.72
2019-03-25T18:38:31.790Z,96576.89
2019-03-25T18:40:58.851Z,96583.92
2019-03-25T18:43:25.907Z,96586.13
2019-03-25T18:45:52.949Z,96600.25
2019-03-25T18:48:19.907Z,96589.69
2019-03-25T18:50:46.945Z,96601.52
2019-03-25T18:53:14.001Z,96610.96
2019-03-25T18:55:41.025Z,96613.56
2019-03-25T18:58:08.076Z,96607.97
2019-03-25T19:00:35.122Z,96615.31
2019-03-25T19:03:02.171Z,96627.69
2019-03-25T19:05:29.254Z,96628.44
2019-03-25T19:07:56.281Z,96632.48
2019-03-25T19:10:26.635Z,96635.14
2019-03-25T19:12:53.686Z,96641.41
2019-03-25T19:15:20.753Z,96660.86
2019-03-25T19:17:47.792Z,96679.02
2019-03-25T19:20:14.855Z,96666.28
2019-03-25T19:22:41.932Z,96668.30
2019-03-25T19:25:13.769Z,96693.28
2019-03-25T19:27:41.359Z,96684.16
2019-03-25T19:30:08.608Z,96692.77
2019-03-25T19:32:35.690Z,96682.88
2019-03-25T19:35:02.757Z,96689.76
2019-03-25T19:37:29.799Z,96695.06
2019-03-25T19:39:56.848Z,96693.28
2019-03-25T19:42:23.893Z,96696.13
2019-03-25T19:44:50.992Z,96700.94
2019-03-25T19:47:18.034Z,96698.64
2019-03-25T19:49:45.110Z,96707.98
2019-03-25T19:52:12.152Z,96716.47
2019-03-25T19:54:39.240Z,96711.66
2019-03-25T19:57:06.362Z,96726.78
2019-03-25T19:59:33.379Z,96724.44
2019-03-25T20:02:00.433Z,96736.72
2019-03-25T20:04:27.501Z,96733.81
2019-03-25T20:06:54.558Z,96732.34
2019-03-25T20:09:21.620Z,96731.52
2019-03-25T20:11:48.627Z,96731.52
2019-03-25T20:14:15.744Z,96735.14
2019-03-25T20:16:42.732Z,96734.17
2019-03-25T20:19:09.829Z,96736.01
2019-03-25T20:21:36.872Z,96741.55
2019-03-25T20:24:03.969Z,96749.52
2019-03-25T20:26:31.023Z,96738.25
2019-03-25T20:28:58.063Z,96749.88
2019-03-25T20:31:25.077Z,96746.22
2019-03-25T20:33:52.191Z,96746.86
2019-03-25T20:36:19.229Z,96743.88
2019-03-25T20:38:49.235Z,96748.37
2019-03-25T20:41:15.278Z,96743.99
2019-03-25T20:43:42.301Z,96741.23
2019-03-25T20:46:09.369Z,96745.61
2019-03-25T20:48:36.416Z,96737.38
2019-03-25T20:51:03.439Z,96748.19
2019-03-25T20:53:30.469Z,96758.98
2019-03-25T20:55:57.610Z,96765.48
2019-03-25T20:58:24.652Z,96753.39
2019-03-25T21:00:52.385Z,96753.24
2019-03-25T21:03:19.393Z,96747.61
2019-03-25T21:05:46.459Z,96743.12
2019-03-25T21:08:13.495Z,96734.01
2019-03-25T21:10:40.517Z,96737.66
2019-03-25T21:13:07.691Z,96746.81
2019-03-25T21:15:34.732Z,96738.41
2019-03-25T21:18:01.819Z,96734.11
2019-03-25T21:20:28.812Z,96731.30
2019-03-25T21:22:55.915Z,96729.19
2019-03-25T21:25:23.007Z,96728.03
2019-03-25T21:27:50.041Z,96723.41
2019-03-25T21:30:17.124Z,96719.42
2019-03-25T21:32:45.482Z,96718.42
2019-03-25T21:35:19.203Z,96721.93
2019-03-25T21:37:46.373Z,96723.91
2019-03-25T21:40:15.493Z,96721.43
2019-03-25T21:42:42.948Z,96715.80
2019-03-25T21:45:10.035Z,96718.95
2019-03-25T21:47:37.070Z,96710.20
2019-03-25T21:50:04.159Z,96715.68
2019-03-25T21:52:31.217Z,96721.34
2019-03-25T21:54:58.267Z,96729.98
2019-03-25T21:57:25.305Z,96734.62
2019-03-25T21:59:52.372Z,96739.06
2019-03-25T22:02:19.376Z,96739.51
2019-03-25T22:04:46.412Z,96738.00
2019-03-25T22:07:15.734Z,96732.84
2019-03-25T22:09:42.756Z,96739.13
2019-03-25T22:12:09.817Z,96758.17
2019-03-25T22:14:36.866Z,96751.01
2019-03-25T22:17:03.874Z,96759.91
2019-03-25T22:19:30.944Z,96762.53
2019-03-25T22:21:58.041Z,96769.47
2019-03-25T22:24:25.096Z,96780.38
2019-03-25T22:26:52.134Z,96782.97
2019-03-25T22:29:19.208Z,96790.83
2019-03-25T22:31:46.238Z,96802.89
2019-03-25T22:34:13.278Z,96810.86
2019-03-25T22:36:40.316Z,96813.20
2019-03-25T22:39:19.634Z,96828.84
2019-03-25T22:41:46.646Z,96821.98
2019-03-25T22:44:13.690Z,96826.36
2019-03-25T22:46:40.718Z,96838.16
2019-03-25T22:49:07.766Z,96845.30
2019-03-25T22:51:34.779Z,96847.48
2019-03-25T22:54:01.813Z,96851.45
2019-03-25T22:56:28.844Z,96864.98
2019-03-25T22:58:55.892Z,96865.14
2019-03-25T23:01:23.029Z,96867.62
2019-03-25T23:03:50.074Z,96874.73
2019-03-25T23:06:17.108Z,96872.38
2019-03-25T23:08:44.136Z,96875.17
2019-03-25T23:11:11.523Z,96878.48
2019-03-25T23:13:38.548Z,96878.42
2019-03-25T23:16:13.068Z,96886.36
2019-03-25T23:18:40.115Z,96877.03
2019-03-25T23:21:07.138Z,96878.98
2019-03-25T23:23:34.165Z,96877.33
2019-03-25T23:26:01.215Z,96880.98
2019-03-25T23:28:28.319Z,96880.02
2019-03-25T23:30:55.359Z,96884.86
2019-03-25T23:33:22.374Z,96884.00
2019-03-25T23:35:49.389Z,96894.92
2019-03-25T23:38:16.296Z,96893.53
2019-03-25T23:40:43.332Z,96894.00
2019-03-25T23:43:10.355Z,96887.71
2019-03-25T23:45:37.405Z,96887.06
2019-03-25T23:48:04.489Z,96886.56
2019-03-25T23:50:31.549Z,96894.21
2019-03-25T23:52:58.570Z,96892.27
2019-03-25T23:55:25.619Z,96895.93
2019-03-25T23:57:52.640Z,96901.24
